CDT,Max TemperatureF,Mean TemperatureF,Min TemperatureF,Max Dew PointF,MeanDew PointF,Min DewpointF,Max Humidity, Mean Humidity, Min Humidity, Max Sea Level PressureIn, Mean Sea Level PressureIn, Min Sea Level PressureIn, Max VisibilityMiles, Mean VisibilityMiles, Min VisibilityMiles, Max Wind SpeedMPH, Mean Wind SpeedMPH, Max Gust SpeedMPH,PrecipitationIn, CloudCover, Events, WindDirDegrees
2012-8-1,87,74,60,72,65,59,100,71,54,29.97,29.87,29.79,10,10,10,17,6,23,0.00,1,,224
2012-8-2,82,73,64,68,63,57,100,71,42,29.90,29.87,29.82,10,10,10,10,3,,0.00,1,,315
2012-8-3,86,72,59,64,62,59,100,69,40,29.93,29.88,29.79,10,10,10,28,3,36,0.00,0,Rain,126
2012-8-4,73,66,60,66,60,55,100,82,53,29.93,29.86,29.75,10,10,2,16,8,31,0.95,3,Rain,240
2012-8-5,71,62,53,55,52,46,100,69,43,30.19,30.12,29.94,10,10,10,15,8,20,0.00,1,,290
2012-8-6,80,66,51,64,58,52,100,71,45,30.14,30.05,29.95,10,10,7,12,6,16,0.00,0,,199
2012-8-7,80,70,59,64,58,50,100,71,34,30.03,29.99,29.94,10,10,4,10,3,,0.00,0,,356
2012-8-8,77,66,55,64,59,55,100,85,57,30.04,30.01,29.97,10,10,10,14,3,23,0.00,4,,73
2012-8-9,71,63,55,63,58,52,100,87,60,30.11,30.03,29.98,10,8,1,14,3,20,0.17,5,Rain,30
2012-8-10,73,62,50,55,52,48,100,76,43,30.17,30.13,30.10,10,10,10,14,6,18,0.00,2,,20
2012-8-11,73,58,44,59,50,43,100,72,38,30.13,30.08,30.02,10,10,7,7,1,,0.00,0,,310
2012-8-12,69,62,55,61,58,55,100,84,64,30.03,30.00,29.98,10,10,7,6,1,,0.00,3,,249
2012-8-13,77,64,51,63,58,52,100,84,53,30.03,30.00,29.96,10,9,2,9,3,,0.01,3,Rain,301
2012-8-14,73,62,50,59,53,45,100,75,36,30.00,29.96,29.90,10,9,1,6,1,,0.00,0,,310
2012-8-15,80,70,59,66,61,54,100,75,51,29.90,29.81,29.71,10,10,7,16,6,23,0.02,6,Rain,163
2012-8-16,69,60,48,64,53,46,94,73,55,30.02,29.89,29.75,10,10,10,16,10,26,0.00,7,,302
2012-8-17,69,56,42,52,45,37,100,71,35,30.11,30.06,30.02,10,10,10,9,3,,0.00,0,,305
2012-8-18,73,58,44,55,48,43,100,71,33,30.04,30.01,29.95,10,10,10,10,2,18,0.05,3,Rain,262
2012-8-19,73,62,48,57,49,37,100,70,29,30.03,30.01,29.98,10,10,3,10,3,,0.00,2,,14
2012-8-20,73,57,41,52,44,39,100,68,31,30.04,30.02,29.99,10,10,7,9,1,,0.00,1,,315
2012-8-21,77,60,44,52,47,43,100,65,29,30.10,30.06,30.01,10,10,10,9,2,,0.00,0,,221
2012-8-22,80,66,51,61,53,46,94,65,34,30.02,29.98,29.92,10,10,10,16,5,21,0.00,1,Rain,158
2012-8-23,82,75,68,64,60,55,78,62,48,29.94,29.89,29.80,10,10,5,13,8,18,0.13,3,Rain,160
2012-8-24,86,75,64,68,64,59,88,65,48,29.89,29.86,29.82,10,10,10,15,8,20,0.00,1,,189
2012-8-25,77,70,62,68,63,59,94,81,61,29.98,29.95,29.90,10,9,5,10,5,,0.07,4,Rain,196
2012-8-26,82,71,60,66,62,50,100,75,34,30.05,29.99,29.95,10,8,3,7,3,,0.00,4,Rain,256
2012-8-27,82,66,50,59,54,50,100,68,32,30.14,30.10,30.05,10,9,0,10,2,,0.00,0,Fog,321
2012-8-28,78,66,53,64,59,54,100,82,54,30.19,30.10,30.02,10,10,4,10,3,17,0.09,2,Rain,98
2012-8-29,89,76,62,64,62,59,94,66,36,30.02,29.92,29.82,10,10,10,14,7,20,0.00,0,,136
2012-8-30,89,78,68,64,60,54,83,55,29,29.94,29.81,29.76,10,10,10,18,10,24,0.00,0,,227
2012-8-31,82,68,53,59,49,37,94,55,20,30.14,30.08,29.94,10,10,10,10,5,,0.00,0,,22